createdAt,value
2022-10-01T00:00:36.388Z,97212.97
2022-10-01T00:03:03.213Z,97210.78
2022-10-01T00:05:29.877Z,97208.66
2022-10-01T00:07:57.913Z,97210.38
2022-10-01T00:10:25.643Z,97208.09
2022-10-01T00:12:52.373Z,97205.91
2022-10-01T00:15:21.768Z,97194.38
2022-10-01T00:17:48.493Z,97201.34
2022-10-01T00:20:15.653Z,97209.03
2022-10-01T00:22:42.302Z,97197.13
2022-10-01T00:25:10.760Z,97198.03
2022-10-01T00:27:37.824Z,97195.94
2022-10-01T00:30:05.597Z,97182.13
2022-10-01T00:32:33.078Z,97183.72
2022-10-01T00:35:00.376Z,97186.81
2022-10-01T00:37:27.158Z,97174.38
2022-10-01T00:39:54.025Z,97178.69
2022-10-01T00:42:25.537Z,97167.09
2022-10-01T00:44:53.304Z,97167.09
2022-10-01T00:47:27.219Z,97159.00
2022-10-01T00:49:59.285Z,97161.75
2022-10-01T00:52:30.723Z,97164.78
2022-10-01T00:55:00.959Z,97156.84
2022-10-01T00:57:30.303Z,97158.75
2022-10-01T01:00:00.790Z,97157.75
2022-10-01T01:02:27.733Z,97160.22
2022-10-01T01:04:54.686Z,97142.13
2022-10-01T01:07:22.895Z,97138.22
2022-10-01T01:09:52.369Z,62402.38
2022-10-01T01:12:40.280Z,97136.22
2022-10-01T01:15:15.198Z,97135.72
2022-10-01T01:17:51.337Z,97135.41
2022-10-01T01:20:32.618Z,97128.75
2022-10-01T01:23:42.272Z,97123.66
2022-10-01T01:26:20.118Z,97112.19
2022-10-01T01:28:51.733Z,97118.69
2022-10-01T01:31:23.048Z,97102.59
2022-10-01T01:33:54.809Z,97110.19
2022-10-01T01:36:28.087Z,97103.31
2022-10-01T01:39:00.208Z,97101.22
2022-10-01T01:41:30.618Z,97105.59
2022-10-01T01:44:02.374Z,97093.72
2022-10-01T01:46:33.824Z,97101.44
2022-10-01T01:49:01.139Z,97094.31
2022-10-01T01:51:33.967Z,97101.22
2022-10-01T01:54:01.039Z,97090.31
2022-10-01T01:56:28.278Z,97095.72
2022-10-01T01:58:55.053Z,97087.31
2022-10-01T02:01:34.972Z,97091.91
2022-10-01T02:04:04.495Z,97077.41
2022-10-01T02:06:36.944Z,97068.38
2022-10-01T02:09:15.437Z,97065.09
2022-10-01T02:11:50.518Z,97068.69
2022-10-01T02:14:27.914Z,97082.50
2022-10-01T02:17:02.064Z,97075.47
2022-10-01T02:19:36.079Z,97071.47
2022-10-01T02:22:09.848Z,97060.69
2022-10-01T02:24:40.484Z,97069.34
2022-10-01T02:27:11.331Z,97071.53
2022-10-01T02:29:39.973Z,97079.38
2022-10-01T02:32:09.773Z,97075.56
2022-10-01T02:34:37.961Z,97075.78
2022-10-01T02:37:08.561Z,97057.09
2022-10-01T02:39:40.920Z,97065.09
2022-10-01T02:42:11.660Z,97052.78
2022-10-01T02:44:42.600Z,97055.59
2022-10-01T02:47:17.949Z,97049.88
2022-10-01T02:49:44.802Z,97047.69
2022-10-01T02:52:20.644Z,97036.69
2022-10-01T02:54:51.910Z,97038.19
2022-10-01T02:57:26.915Z,97037.59
2022-10-01T02:59:57.043Z,97036.31
2022-10-01T03:02:27.490Z,97042.28
2022-10-01T03:04:55.580Z,97038.50
2022-10-01T03:07:22.191Z,97036.91
2022-10-01T03:09:49.583Z,97046.59
2022-10-01T03:12:19.643Z,97045.38
2022-10-01T03:14:46.447Z,97049.06
2022-10-01T03:17:14.497Z,97056.47
2022-10-01T03:19:42.596Z,97057.00
2022-10-01T03:22:11.599Z,62402.38
2022-10-01T03:24:38.220Z,97051.72
2022-10-01T03:27:05.157Z,97040.25
2022-10-01T03:29:31.797Z,97044.41
2022-10-01T03:31:58.434Z,97032.38
2022-10-01T03:34:25.504Z,97034.94
2022-10-01T03:36:53.510Z,97034.53
2022-10-01T03:39:20.351Z,97033.56
2022-10-01T03:41:47.225Z,97045.28
2022-10-01T03:44:13.902Z,97034.75
2022-10-01T03:46:40.590Z,97027.41
2022-10-01T03:49:07.287Z,97029.66
2022-10-01T03:51:36.279Z,97025.19
2022-10-01T03:54:05.585Z,97029.78
2022-10-01T03:56:33.264Z,97026.59
2022-10-01T03:58:59.966Z,97030.72
2022-10-01T04:01:27.206Z,97025.34
2022-10-01T04:03:54.286Z,97026.53
2022-10-01T04:06:20.973Z,97012.28
2022-10-01T04:08:47.719Z,97022.38
2022-10-01T04:11:15.777Z,97016.25
2022-10-01T04:13:42.450Z,97016.53
2022-10-01T04:16:09.665Z,97025.19
2022-10-01T04:18:36.417Z,97022.47
2022-10-01T04:21:03.330Z,97012.56
2022-10-01T04:23:30.271Z,97007.47
2022-10-01T04:25:59.772Z,96996.47
2022-10-01T04:28:28.768Z,96993.25
2022-10-01T04:31:15.759Z,96999.75
2022-10-01T04:33:42.466Z,96980.41
2022-10-01T04:36:09.213Z,96984.16
2022-10-01T04:38:35.904Z,96982.84
2022-10-01T04:41:02.572Z,96979.94
2022-10-01T04:43:30.617Z,96963.28
2022-10-01T04:45:57.182Z,96961.66
2022-10-01T04:48:24.371Z,96947.13
2022-10-01T04:50:51.110Z,96955.72
2022-10-01T04:53:17.827Z,96964.31
2022-10-01T04:55:44.642Z,96937.97
2022-10-01T04:58:11.261Z,96939.81
2022-10-01T05:00:39.551Z,96939.28
2022-10-01T05:03:06.232Z,96950.56
2022-10-01T05:05:34.929Z,96956.47
2022-10-01T05:08:02.217Z,96950.28
2022-10-01T05:10:29.035Z,96948.41
2022-10-01T05:12:55.775Z,96953.47
2022-10-01T05:15:22.377Z,96967.97
2022-10-01T05:17:50.646Z,96990.53
2022-10-01T05:20:19.986Z,96980.72
2022-10-01T05:22:47.407Z,96973.47
2022-10-01T05:25:14.656Z,96962.09
2022-10-01T05:27:41.928Z,96944.38
2022-10-01T05:30:10.581Z,96905.63
2022-10-01T05:32:38.019Z,96907.53
2022-10-01T05:35:08.175Z,96907.03
2022-10-01T05:37:34.878Z,96911.09
2022-10-01T05:40:02.104Z,96917.56
2022-10-01T05:42:28.916Z,96900.88
2022-10-01T05:44:56.235Z,96887.72
2022-10-01T05:47:23.342Z,96875.06
2022-10-01T05:49:50.179Z,96868.09
2022-10-01T05:52:18.166Z,96872.59
2022-10-01T11:10:45.847Z,62402.38
2022-10-01T11:13:26.244Z,62402.38
2022-10-01T11:16:21.413Z,62402.38
2022-10-01T11:19:08.031Z,62402.38
2022-10-01T11:21:49.546Z,62402.38
2022-10-01T11:24:41.253Z,62402.38
2022-10-01T11:27:23.861Z,62402.38
2022-10-01T11:30:01.447Z,62402.38
2022-10-01T11:32:37.216Z,62402.38
2022-10-01T11:35:22.526Z,62402.38
2022-10-01T11:38:00.984Z,62402.38
2022-10-01T11:40:36.233Z,62402.38
2022-10-01T11:43:14.264Z,62402.38
2022-10-01T11:45:45.703Z,62402.38
2022-10-01T11:48:22.777Z,62402.38
2022-10-01T11:50:54.352Z,62402.38
2022-10-01T11:53:24.953Z,62402.38
2022-10-01T11:56:15.601Z,62402.38
2022-10-01T11:58:51.034Z,62402.38
2022-10-01T12:01:28.004Z,62402.38
2022-10-01T12:04:09.177Z,96933.78
2022-10-01T12:06:41.190Z,62402.38
2022-10-01T12:09:17.298Z,62402.38
2022-10-01T12:11:51.722Z,62402.38
2022-10-01T12:14:27.092Z,62402.38
2022-10-01T12:16:58.507Z,96940.34
2022-10-01T12:19:28.729Z,96930.38
2022-10-01T12:22:00.192Z,62402.38
2022-10-01T12:24:30.954Z,62402.38
2022-10-01T12:27:07.382Z,62402.38
2022-10-01T12:29:42.951Z,62402.38
2022-10-01T12:32:20.426Z,62402.38
2022-10-01T12:34:55.826Z,62402.38
2022-10-01T12:37:35.184Z,62402.38
2022-10-01T12:40:18.108Z,62402.38
2022-10-01T12:43:09.148Z,62402.38
2022-10-01T12:45:49.473Z,62402.38
2022-10-01T12:48:26.371Z,62402.38
2022-10-01T12:51:06.487Z,62402.38
2022-10-01T12:53:41.495Z,62402.38
2022-10-01T12:56:17.488Z,62402.38
2022-10-01T12:59:07.041Z,62402.38
2022-10-01T13:01:49.560Z,62402.38
2022-10-01T13:04:37.049Z,62402.38
2022-10-01T13:07:25.913Z,62402.38
2022-10-01T13:10:06.876Z,62402.38
2022-10-01T13:12:49.737Z,62402.38
2022-10-01T13:15:20.588Z,62402.38
2022-10-01T13:17:53.763Z,62402.38
2022-10-01T13:20:29.220Z,62402.38
2022-10-01T13:23:05.872Z,62402.38
2022-10-01T13:25:42.823Z,62402.38
2022-10-01T13:28:17.867Z,62402.38
2022-10-01T13:30:56.573Z,62402.38
2022-10-01T13:33:27.847Z,62402.38
2022-10-01T13:35:57.702Z,62402.38
2022-10-01T13:38:40.089Z,62402.38
2022-10-01T13:41:20.061Z,62402.38
2022-10-01T13:43:58.730Z,62402.38
2022-10-01T13:46:31.584Z,62402.38
2022-10-01T13:49:07.949Z,62402.38
2022-10-01T13:51:37.756Z,62402.38
2022-10-01T13:54:18.777Z,62402.38
2022-10-01T13:56:46.918Z,62402.38
2022-10-01T13:59:32.009Z,62402.38
2022-10-01T14:01:59.471Z,62402.38
2022-10-01T14:04:37.821Z,62402.38
2022-10-01T14:07:14.615Z,62402.38
2022-10-01T14:09:46.143Z,62402.38
2022-10-01T14:12:37.105Z,62402.38
2022-10-01T14:15:35.288Z,62402.38
2022-10-01T14:18:07.730Z,62402.38
2022-10-01T14:20:49.021Z,62402.38
2022-10-01T14:23:23.019Z,62402.38
2022-10-01T14:25:57.524Z,62402.38
2022-10-01T14:28:47.960Z,62402.38
2022-10-01T14:31:24.329Z,62402.38
2022-10-01T14:34:17.852Z,62402.38
2022-10-01T14:36:50.294Z,62402.38
2022-10-01T14:39:20.570Z,62402.38
2022-10-01T14:41:50.396Z,62402.38
2022-10-01T14:44:24.292Z,62402.38
2022-10-01T14:46:52.606Z,62402.38
2022-10-01T14:49:26.591Z,62402.38
2022-10-01T14:52:00.628Z,62402.38
2022-10-01T14:54:31.217Z,62402.38
2022-10-01T14:56:59.602Z,62402.38
2022-10-01T14:59:35.241Z,62402.38
2022-10-01T15:02:16.557Z,62402.38
2022-10-01T15:04:46.784Z,62402.38
2022-10-01T15:07:17.361Z,62402.38
2022-10-01T15:09:45.657Z,62402.38
2022-10-01T15:12:15.456Z,62402.38
2022-10-01T15:14:44.231Z,62402.38
2022-10-01T15:17:21.033Z,62402.38
2022-10-01T15:19:52.432Z,62402.38
2022-10-01T15:22:26.916Z,62402.38
2022-10-01T15:24:59.909Z,62402.38
2022-10-01T15:27:27.767Z,62402.38
2022-10-01T15:29:59.315Z,62402.38
2022-10-01T15:32:28.425Z,62402.38
2022-10-01T15:34:58.659Z,62402.38
2022-10-01T15:37:33.427Z,62402.38
2022-10-01T15:40:03.425Z,62402.38
2022-10-01T15:42:33.122Z,62402.38
2022-10-01T15:45:24.530Z,62402.38
2022-10-01T15:47:52.469Z,62402.38
2022-10-01T15:50:22.064Z,62402.38
2022-10-01T15:52:55.920Z,62402.38
2022-10-01T15:55:29.341Z,62402.38
2022-10-01T15:58:01.471Z,62402.38
2022-10-01T16:00:31.420Z,62402.38
2022-10-01T16:02:59.581Z,62402.38
2022-10-01T16:05:31.362Z,62402.38
2022-10-01T16:07:59.797Z,62402.38
2022-10-01T16:10:33.100Z,62402.38
2022-10-01T16:13:20.653Z,62402.38
2022-10-01T16:16:07.922Z,62402.38
2022-10-01T16:18:37.470Z,62402.38
2022-10-01T16:21:06.819Z,62402.38
2022-10-01T16:23:49.634Z,62402.38
2022-10-01T16:26:34.113Z,62402.38
2022-10-01T16:29:04.091Z,62402.38
2022-10-01T16:31:32.880Z,62402.38
2022-10-01T16:34:00.111Z,62402.38
2022-10-01T16:36:29.085Z,62402.38
2022-10-01T16:38:58.080Z,62402.38
2022-10-01T16:41:26.666Z,62402.38
2022-10-01T16:43:57.390Z,62402.38
2022-10-01T16:46:24.479Z,62402.38
2022-10-01T16:48:52.388Z,62402.38
2022-10-01T16:51:20.751Z,62402.38
2022-10-01T16:53:49.266Z,62402.38
2022-10-01T16:56:18.082Z,62402.38
2022-10-01T16:58:45.960Z,62402.38
2022-10-01T17:01:15.258Z,62402.38
2022-10-01T17:03:42.566Z,62402.38
2022-10-01T17:06:11.211Z,62402.38
2022-10-01T17:08:39.004Z,62402.38
2022-10-01T17:11:10.662Z,62402.38
2022-10-01T17:13:41.198Z,62402.38
2022-10-01T17:16:10.577Z,62402.38
2022-10-01T17:18:37.687Z,62402.38
2022-10-01T17:21:06.078Z,62402.38
2022-10-01T17:23:35.537Z,62402.38
2022-10-01T17:26:05.495Z,62402.38
2022-10-01T17:28:33.072Z,62402.38
2022-10-01T17:31:06.663Z,62402.38
2022-10-01T17:33:34.798Z,62402.38
2022-10-01T17:36:07.686Z,62402.38
2022-10-01T17:38:34.890Z,62402.38
2022-10-01T17:41:02.425Z,62402.38
2022-10-01T17:43:29.879Z,62402.38
2022-10-01T17:45:58.794Z,62402.38
2022-10-01T17:48:28.282Z,62402.38
2022-10-01T17:51:03.849Z,62402.38
2022-10-01T17:53:36.165Z,62402.38
2022-10-01T17:56:10.408Z,62402.38
2022-10-01T17:58:42.881Z,62402.38
2022-10-01T18:01:13.543Z,62402.38
2022-10-01T18:03:42.263Z,62402.38
2022-10-01T18:06:13.529Z,62402.38
2022-10-01T18:08:54.711Z,62402.38
2022-10-01T18:11:24.730Z,62402.38
2022-10-01T18:13:53.349Z,62402.38
2022-10-01T18:16:21.128Z,62402.38
2022-10-01T18:21:42.619Z,62402.38
2022-10-01T18:24:09.930Z,62402.38
2022-10-01T18:26:38.212Z,62402.38
2022-10-01T18:29:06.330Z,62402.38
2022-10-01T18:31:36.489Z,62402.38
2022-10-01T18:34:16.679Z,62402.38
2022-10-01T18:36:54.165Z,62402.38
2022-10-01T18:39:35.073Z,62402.38
2022-10-01T18:42:11.025Z,62402.38
2022-10-01T18:44:38.308Z,62402.38
2022-10-01T18:47:17.942Z,62402.38
2022-10-01T18:50:03.676Z,62402.38
2022-10-01T18:52:44.723Z,62402.38
2022-10-01T18:55:32.925Z,62402.38
2022-10-01T18:58:19.109Z,62402.38
2022-10-01T19:00:57.744Z,62402.38
2022-10-01T19:03:54.199Z,62402.38
2022-10-01T19:06:46.287Z,62402.38
2022-10-01T19:09:31.805Z,62402.38
2022-10-01T19:12:16.394Z,62402.38
2022-10-01T19:15:04.413Z,62402.38
2022-10-01T19:18:05.291Z,62402.38
2022-10-01T19:20:48.108Z,62402.38
2022-10-01T19:23:49.921Z,62402.38
2022-10-01T19:26:27.400Z,62402.38
2022-10-01T19:29:10.845Z,62402.38
2022-10-01T19:31:45.976Z,62402.38
2022-10-01T19:34:21.986Z,62402.38
2022-10-01T19:36:54.429Z,62402.38
2022-10-01T19:39:28.057Z,62402.38
2022-10-01T19:41:59.957Z,62402.38
2022-10-01T19:44:32.129Z,62402.38
2022-10-01T19:47:15.359Z,62402.38
2022-10-01T19:49:47.095Z,62402.38
2022-10-01T19:52:18.349Z,62402.38
2022-10-01T19:54:52.943Z,62402.38
2022-10-01T19:57:25.101Z,62402.38
2022-10-01T19:59:55.419Z,62402.38
2022-10-01T20:02:32.342Z,62402.38
2022-10-01T20:05:04.626Z,62402.38
2022-10-01T20:07:41.269Z,62402.38
2022-10-01T20:10:19.306Z,62402.38
2022-10-01T20:12:57.308Z,62402.38
2022-10-01T20:15:37.419Z,62402.38
2022-10-01T20:18:16.430Z,62402.38
2022-10-01T20:20:51.918Z,62402.38
2022-10-01T20:23:36.771Z,62402.38
2022-10-01T20:26:16.246Z,62402.38
2022-10-01T20:28:52.283Z,62402.38
2022-10-01T20:31:25.051Z,62402.38
2022-10-01T20:34:01.794Z,62402.38
2022-10-01T20:36:37.063Z,62402.38
2022-10-01T20:39:13.332Z,62402.38
2022-10-01T20:41:45.263Z,62402.38
2022-10-01T20:44:15.952Z,62402.38
2022-10-01T20:46:47.571Z,62402.38
2022-10-01T20:49:24.995Z,62402.38
2022-10-01T20:52:00.055Z,62402.38
2022-10-01T20:54:36.232Z,62402.38
2022-10-01T20:57:11.619Z,62402.38
2022-10-01T20:59:43.266Z,62402.38
2022-10-01T21:02:26.956Z,62402.38
2022-10-01T21:05:00.626Z,62402.38
2022-10-01T21:07:35.703Z,62402.38
2022-10-01T21:10:07.161Z,62402.38
2022-10-01T21:12:40.793Z,62402.38
2022-10-01T21:15:13.805Z,62402.38
2022-10-01T21:17:50.436Z,62402.38
2022-10-01T21:20:44.162Z,62402.38
2022-10-01T21:23:28.754Z,62402.38
2022-10-01T21:26:08.065Z,62402.38
2022-10-01T21:28:56.973Z,62402.38
2022-10-01T21:31:36.500Z,62402.38
2022-10-01T21:34:11.888Z,62402.38
2022-10-01T21:36:48.151Z,62402.38
2022-10-01T21:39:24.027Z,62402.38
2022-10-01T21:45:05.326Z,62402.38
2022-10-01T21:47:48.193Z,62402.38
2022-10-01T21:50:23.013Z,62402.38
2022-10-01T21:53:08.111Z,62402.38
2022-10-01T21:56:00.674Z,62402.38
2022-10-01T21:58:43.406Z,62402.38
2022-10-01T22:01:20.792Z,62402.38
2022-10-01T22:03:52.688Z,62402.38
2022-10-01T22:09:25.989Z,62402.38
2022-10-01T22:11:59.172Z,62402.38
2022-10-01T22:14:28.229Z,62402.38
2022-10-01T22:16:59.192Z,62402.38
2022-10-01T22:19:30.225Z,62402.38
2022-10-01T22:22:04.471Z,62402.38
2022-10-01T22:24:38.586Z,62402.38
2022-10-01T22:27:11.415Z,62402.38
2022-10-01T22:29:44.725Z,62402.38
2022-10-01T22:32:17.966Z,62402.38
2022-10-01T22:34:49.062Z,62402.38
2022-10-01T22:37:22.228Z,62402.38
2022-10-01T22:39:56.377Z,62402.38
2022-10-01T22:42:29.182Z,62402.38
2022-10-01T22:45:01.343Z,62402.38
2022-10-01T22:47:43.731Z,62402.38
2022-10-01T22:50:23.242Z,62402.38
2022-10-01T22:53:04.365Z,62402.38
2022-10-01T22:55:43.340Z,62402.38
2022-10-01T22:58:24.747Z,62402.38
2022-10-01T23:01:01.750Z,62402.38
2022-10-01T23:03:48.278Z,62402.38
2022-10-01T23:06:25.050Z,62402.38
2022-10-01T23:09:02.158Z,62402.38
2022-10-01T23:11:38.802Z,62402.38
2022-10-01T23:14:13.292Z,62402.38
2022-10-01T23:16:45.862Z,62402.38
2022-10-01T23:19:27.976Z,62402.38
2022-10-01T23:22:01.295Z,62402.38
2022-10-01T23:24:44.854Z,62402.38
2022-10-01T23:27:23.458Z,62402.38
2022-10-01T23:30:07.862Z,62402.38
2022-10-01T23:32:47.935Z,62402.38
2022-10-01T23:35:19.892Z,62402.38
2022-10-01T23:38:01.657Z,62402.38
2022-10-01T23:40:33.344Z,62402.38
2022-10-01T23:43:09.578Z,62402.38
2022-10-01T23:45:42.907Z,62402.38
2022-10-01T23:48:15.513Z,62402.38
2022-10-01T23:50:48.361Z,62402.38
2022-10-01T23:53:18.852Z,62402.38
2022-10-01T23:56:10.028Z,62402.38
2022-10-01T23:58:45.469Z,62402.38
